Terminal Aerodrome Forecast
Issued by NWS

Home | Current Version | Previous Version | Graphics & Text | Print | Product List | Glossary On
Versions: 1 2 3 4 5 6 7 8 9 10 11 12 13 14 15 16 17 18 19 20 21 22 23 24 25 26 27 28
000
FTUS43 KGRB 141722
TAFRHI
TAF
KRHI 141722Z 1418/1518 11003KT P6SM -SHRA OVC035
      TEMPO 1418/1422 5SM -SHRA SCT009 BKN025
     FM150200 05003KT P6SM OVC035
     FM150500 VRB03KT 5SM BR BKN018
     FM150900 VRB03KT 2SM BR BKN011
     FM151400 06004KT P6SM SCT015=

USA.gov is the U.S. government's official web portal to all federal, state and local government web resources and services.